createdAt,value
2023-03-02T00:00:22.694Z,49.10
2023-03-02T00:05:52.506Z,53.80
2023-03-02T00:11:16.959Z,51.70
2023-03-02T00:16:41.234Z,51.20
2023-03-02T00:22:06.080Z,54.70
2023-03-02T00:27:31.131Z,57.00
2023-03-02T00:32:55.853Z,46.70
2023-03-02T00:38:20.342Z,42.80
2023-03-02T00:43:44.671Z,42.00
2023-03-02T00:49:08.557Z,43.30
2023-03-02T00:54:33.123Z,41.00
2023-03-02T00:59:58.416Z,40.70
2023-03-02T01:05:37.973Z,40.00
2023-03-02T01:11:02.242Z,38.80
2023-03-02T01:16:26.900Z,45.60
2023-03-02T01:21:51.158Z,39.60
2023-03-02T01:27:15.494Z,43.10
2023-03-02T01:32:40.721Z,40.20
2023-03-02T01:38:05.323Z,43.30
2023-03-02T01:43:29.713Z,45.00
2023-03-02T01:49:03.415Z,43.10
2023-03-02T01:54:59.818Z,41.40
2023-03-02T02:00:33.574Z,36.00
2023-03-02T02:06:06.805Z,33.50
2023-03-02T02:11:31.976Z,40.90
2023-03-02T02:16:56.078Z,48.20
2023-03-02T02:22:40.820Z,46.80
2023-03-02T02:28:08.814Z,54.30
2023-03-02T02:33:35.264Z,54.00
2023-03-02T02:39:04.932Z,53.10
2023-03-02T02:44:29.644Z,48.70
2023-03-02T02:49:56.203Z,50.70
2023-03-02T02:55:24.066Z,45.50
2023-03-02T03:00:48.595Z,49.60
2023-03-02T03:06:21.307Z,45.00
2023-03-02T03:11:50.377Z,42.10
2023-03-02T03:17:15.418Z,39.40
2023-03-02T03:22:45.325Z,41.30
2023-03-02T03:28:09.568Z,36.80
2023-03-02T03:33:34.476Z,38.40
2023-03-02T03:38:59.107Z,37.10
2023-03-02T03:44:24.714Z,35.50
2023-03-02T03:49:49.591Z,33.00
2023-03-02T03:55:14.780Z,38.30
2023-03-02T04:00:39.513Z,34.70
2023-03-02T04:06:05.397Z,32.10
2023-03-02T04:11:29.860Z,35.70
2023-03-02T04:16:54.524Z,33.30
2023-03-02T04:22:20.544Z,39.20
2023-03-02T04:27:44.827Z,40.50
2023-03-02T04:33:08.962Z,37.80
2023-03-02T04:38:33.485Z,40.20
2023-03-02T04:43:58.347Z,40.20
2023-03-02T04:49:23.714Z,44.40
2023-03-02T04:54:48.830Z,42.00
2023-03-02T05:00:13.463Z,38.60
2023-03-02T05:05:37.904Z,37.20
2023-03-02T05:11:02.957Z,38.00
2023-03-02T05:16:32.881Z,37.40
2023-03-02T05:21:57.544Z,34.20
2023-03-02T05:27:22.666Z,29.20
2023-03-02T05:32:47.649Z,31.80
2023-03-02T05:38:12.094Z,31.60
2023-03-02T05:43:36.645Z,30.20
2023-03-02T05:49:01.274Z,29.90
2023-03-02T05:54:25.842Z,31.90
2023-03-02T05:59:51.247Z,32.50
2023-03-02T06:05:18.269Z,35.20
2023-03-02T06:10:42.272Z,31.40
2023-03-02T06:16:06.681Z,29.90
2023-03-02T06:21:31.736Z,27.60
2023-03-02T06:26:56.794Z,29.20
2023-03-02T06:32:21.751Z,29.10
2023-03-02T06:37:46.041Z,30.00
2023-03-02T06:43:10.339Z,34.10
2023-03-02T06:48:35.002Z,32.60
2023-03-02T06:53:59.977Z,35.50
2023-03-02T06:59:25.856Z,38.30
2023-03-02T07:04:50.608Z,36.20
2023-03-02T07:10:14.851Z,39.10
2023-03-02T07:15:40.768Z,36.70
2023-03-02T07:21:05.015Z,38.20
2023-03-02T07:27:04.713Z,40.20
2023-03-02T07:33:04.225Z,41.40
2023-03-02T07:39:04.712Z,42.00
2023-03-02T07:45:05.122Z,42.80
2023-03-02T07:51:06.394Z,45.20
2023-03-02T07:56:30.984Z,41.10
2023-03-02T08:01:55.971Z,42.70
2023-03-02T08:07:21.589Z,44.60
2023-03-02T08:12:46.217Z,40.10
2023-03-02T08:18:10.639Z,38.00
2023-03-02T08:23:35.276Z,36.90
2023-03-02T08:29:00.315Z,39.60
2023-03-02T08:34:24.936Z,35.20
2023-03-02T08:39:49.975Z,33.80
2023-03-02T08:45:14.716Z,36.20
2023-03-02T08:50:39.045Z,31.00
2023-03-02T08:56:03.992Z,31.50
2023-03-02T09:01:31.894Z,28.70
2023-03-02T09:06:56.432Z,29.00
2023-03-02T09:12:22.011Z,21.30
2023-03-02T09:17:47.165Z,21.90
2023-03-02T09:23:13.884Z,24.60
2023-03-02T09:28:39.254Z,20.90
2023-03-02T09:34:04.199Z,23.40
2023-03-02T09:39:28.428Z,24.30
2023-03-02T09:45:15.352Z,20.50
2023-03-02T09:51:04.478Z,19.30
2023-03-02T09:56:28.634Z,20.10
2023-03-02T10:02:01.664Z,18.70
2023-03-02T10:07:34.448Z,18.50
2023-03-02T10:13:28.788Z,17.80
2023-03-02T10:19:07.210Z,18.80
2023-03-02T10:24:46.130Z,19.80
2023-03-02T10:30:34.365Z,19.50
2023-03-02T10:36:01.375Z,19.50
2023-03-02T10:41:33.663Z,20.40
2023-03-02T10:46:58.240Z,18.30
2023-03-02T10:52:25.848Z,20.40
2023-03-02T10:58:04.495Z,17.60
2023-03-02T11:03:29.888Z,19.90
2023-03-02T11:09:05.399Z,19.40
2023-03-02T11:14:29.385Z,18.00
2023-03-02T11:19:53.823Z,20.30
2023-03-02T11:25:40.087Z,19.60
2023-03-02T11:31:10.736Z,20.50
2023-03-02T11:37:02.831Z,21.20
2023-03-02T11:42:39.427Z,22.10
2023-03-02T11:48:09.291Z,19.80
2023-03-02T11:53:56.784Z,22.40
2023-03-02T11:59:23.930Z,20.60
2023-03-02T12:04:49.260Z,23.50
2023-03-02T12:10:32.847Z,21.80
2023-03-02T12:15:57.198Z,22.90
2023-03-02T12:21:24.248Z,21.30
2023-03-02T12:26:48.977Z,23.30
2023-03-02T12:32:19.094Z,21.30
2023-03-02T12:38:05.848Z,20.00
2023-03-02T12:43:36.028Z,19.20
2023-03-02T12:49:17.665Z,19.40
2023-03-02T12:54:41.979Z,18.00
2023-03-02T13:00:17.775Z,18.50
2023-03-02T13:05:43.260Z,15.90
2023-03-02T13:11:08.514Z,17.10
2023-03-02T13:16:37.217Z,17.30
2023-03-02T13:22:01.823Z,17.90
2023-03-02T13:27:27.254Z,18.80
2023-03-02T13:32:51.727Z,16.80
2023-03-02T13:38:26.974Z,15.70
2023-03-02T13:43:51.400Z,15.70
2023-03-02T13:49:30.835Z,14.10
2023-03-02T13:54:55.138Z,13.00
2023-03-02T14:00:28.690Z,8.60
2023-03-02T14:05:53.671Z,10.00
2023-03-02T14:11:19.681Z,8.70
2023-03-02T14:16:44.554Z,9.40
2023-03-02T14:22:11.525Z,9.80
2023-03-02T14:27:35.928Z,9.40
2023-03-02T14:33:00.509Z,9.70
2023-03-02T14:38:27.725Z,9.70
2023-03-02T14:43:53.095Z,11.70
2023-03-02T14:49:17.874Z,13.00
2023-03-02T14:54:46.603Z,12.20
2023-03-02T15:00:16.035Z,11.90
2023-03-02T15:05:46.285Z,11.50
2023-03-02T15:16:38.663Z,10.80
2023-03-02T15:22:03.146Z,10.30
2023-03-02T15:27:27.899Z,12.50
2023-03-02T15:32:53.663Z,12.60
2023-03-02T15:38:18.587Z,13.00
2023-03-02T15:43:42.993Z,12.80
2023-03-02T15:49:07.445Z,13.00
2023-03-02T15:54:32.778Z,13.40
2023-03-02T15:59:56.744Z,13.40
2023-03-02T16:05:21.077Z,13.80
2023-03-02T16:10:56.678Z,13.50
2023-03-02T16:16:21.929Z,13.30
2023-03-02T16:21:48.082Z,12.70
2023-03-02T16:27:13.019Z,14.20
2023-03-02T16:32:37.645Z,13.80
2023-03-02T16:38:02.255Z,14.50
2023-03-02T16:43:26.795Z,16.80
2023-03-02T16:48:51.525Z,18.30
2023-03-02T16:54:19.096Z,22.90
2023-03-02T16:59:43.735Z,27.50
2023-03-02T17:05:08.307Z,28.20
2023-03-02T17:10:32.559Z,29.30
2023-03-02T17:15:57.901Z,27.70
2023-03-02T17:21:24.602Z,27.60
2023-03-02T17:26:49.972Z,25.00
2023-03-02T17:32:14.851Z,27.00
2023-03-02T17:37:39.931Z,30.10
2023-03-02T17:43:03.885Z,30.10
2023-03-02T17:48:28.252Z,28.10
2023-03-02T17:53:53.820Z,28.20
2023-03-02T17:59:19.068Z,26.10
2023-03-02T18:04:43.709Z,27.70
2023-03-02T18:16:11.098Z,25.00
2023-03-02T18:21:36.957Z,26.50
2023-03-02T18:27:18.889Z,24.70
2023-03-02T18:32:44.557Z,26.00
2023-03-02T18:38:09.632Z,24.90
2023-03-02T18:43:38.161Z,26.30
2023-03-02T18:49:02.300Z,26.80
2023-03-02T18:54:26.527Z,27.00
2023-03-02T18:59:51.069Z,26.70
2023-03-02T19:05:19.766Z,25.80
2023-03-02T19:10:44.356Z,27.10
2023-03-02T19:16:10.033Z,25.80
2023-03-02T19:21:34.920Z,25.50
2023-03-02T19:27:00.312Z,26.80
2023-03-02T19:32:24.659Z,30.10
2023-03-02T19:37:49.317Z,27.70
2023-03-02T19:43:13.773Z,23.60
2023-03-02T19:48:39.269Z,23.60
2023-03-02T19:54:04.637Z,24.00
2023-03-02T19:59:31.013Z,21.10
2023-03-02T20:04:55.153Z,23.40
2023-03-02T20:10:31.628Z,21.60
2023-03-02T20:15:55.993Z,22.80
2023-03-02T20:21:20.098Z,22.00
2023-03-02T20:26:44.407Z,18.90
2023-03-02T20:32:10.286Z,21.30
2023-03-02T20:37:34.871Z,20.30
2023-03-02T20:42:59.657Z,17.40
2023-03-02T20:48:24.356Z,19.00
2023-03-02T20:53:48.673Z,18.40
2023-03-02T20:59:14.117Z,19.30
2023-03-02T21:04:38.104Z,22.00
2023-03-02T21:10:08.214Z,20.00
2023-03-02T21:15:32.992Z,18.90
2023-03-02T21:20:57.696Z,18.60
2023-03-02T21:26:22.175Z,17.30
2023-03-02T21:31:46.573Z,19.10
2023-03-02T21:37:10.755Z,18.40
2023-03-02T21:42:35.197Z,17.50
2023-03-02T21:47:59.596Z,19.10
2023-03-02T21:53:24.182Z,18.80
2023-03-02T21:58:50.797Z,17.90
2023-03-02T22:04:14.831Z,20.60
2023-03-02T22:09:38.698Z,20.30
2023-03-02T22:15:13.664Z,18.40
2023-03-02T22:20:40.086Z,18.80
2023-03-02T22:26:15.696Z,19.60
2023-03-02T22:31:44.863Z,19.80
2023-03-02T22:37:21.626Z,21.30
2023-03-02T22:42:45.937Z,21.60
2023-03-02T22:48:21.539Z,21.80
2023-03-02T22:53:55.478Z,22.80
2023-03-02T22:59:28.392Z,20.00
2023-03-02T23:04:52.524Z,19.40
2023-03-02T23:10:22.671Z,21.00
2023-03-02T23:15:47.849Z,19.40
2023-03-02T23:21:22.014Z,17.80
2023-03-02T23:26:46.881Z,20.20
2023-03-02T23:32:11.015Z,18.10
2023-03-02T23:37:34.830Z,18.30
2023-03-02T23:42:59.093Z,18.00
2023-03-02T23:48:22.932Z,19.00
2023-03-02T23:53:47.454Z,21.70
2023-03-02T23:59:11.486Z,18.90
